Time;durP1;ratioP1;P1;durP2;ratioP2;P2;SDS_P1;SDS_P2;PMS_P1;PMS_P2;Temp;Humidity;BMP_temperature;BMP_pressure;BME280_temperature;BME280_humidity;BME280_pressure;Samples;Min_cycle;Max_cycle;Signal;HPM_P1;HPM_P2
2023/08/23 00:01:15;;;;;;;4.47;2.35;;;17.30;99.90;;;;;;5072946;28;20506;-74
2023/08/23 00:03:40;;;;;;;4.82;2.85;;;17.20;99.90;;;;;;5072480;28;20122;-74
2023/08/23 00:06:06;;;;;;;5.13;2.92;;;17.20;99.90;;;;;;5072997;28;20115;-75
2023/08/23 00:08:31;;;;;;;3.63;2.90;;;17.10;99.90;;;;;;5072306;28;20028;-75
2023/08/23 00:10:57;;;;;;;4.70;3.35;;;17.10;99.90;;;;;;5072469;28;20024;-75
2023/08/23 00:13:22;;;;;;;7.55;3.53;;;17.00;99.90;;;;;;5072384;28;20119;-75
2023/08/23 00:15:49;;;;;;;3.58;3.05;;;17.00;99.90;;;;;;5072707;28;20043;-75
2023/08/23 00:18:15;;;;;;;4.68;3.20;;;17.00;99.90;;;;;;5071460;28;20043;-74
2023/08/23 00:20:40;;;;;;;6.80;3.50;;;17.00;99.90;;;;;;5072451;28;20039;-75
2023/08/23 00:23:06;;;;;;;6.65;3.30;;;17.00;99.90;;;;;;5072625;28;20039;-74
2023/08/23 00:25:31;;;;;;;3.63;3.00;;;17.00;99.90;;;;;;5094904;28;20065;-75
2023/08/23 00:27:57;;;;;;;4.68;3.75;;;17.00;99.90;;;;;;5072098;28;20517;-75
2023/08/23 00:30:23;;;;;;;4.05;3.53;;;16.90;99.90;;;;;;5072064;28;20048;-74
2023/08/23 00:32:48;;;;;;;4.03;3.10;;;16.90;99.90;;;;;;5071998;28;20381;-75
2023/08/23 00:35:14;;;;;;;4.22;2.80;;;16.90;99.90;;;;;;5072451;28;20115;-75
2023/08/23 00:37:39;;;;;;;3.35;2.50;;;16.80;99.90;;;;;;5072168;28;20075;-75
2023/08/23 00:40:09;;;;;;;3.15;2.50;;;16.70;99.90;;;;;;5072140;28;20519;-75
2023/08/23 00:42:34;;;;;;;3.20;2.90;;;16.70;99.90;;;;;;5055882;28;20032;-75
2023/08/23 00:45:00;;;;;;;3.17;2.80;;;16.60;99.90;;;;;;5072835;28;20047;-75
2023/08/23 00:47:25;;;;;;;4.35;3.03;;;16.60;99.90;;;;;;5055007;28;20036;-74
2023/08/23 00:49:51;;;;;;;4.00;3.08;;;16.40;99.90;;;;;;5072211;28;20520;-74
2023/08/23 00:52:17;;;;;;;5.93;3.15;;;16.40;99.90;;;;;;5071770;28;20418;-74
2023/08/23 00:54:44;;;;;;;4.53;3.40;;;16.40;99.90;;;;;;5071629;28;20086;-75
2023/08/23 00:57:10;;;;;;;4.70;3.72;;;16.40;99.90;;;;;;5071575;28;20551;-74
2023/08/23 00:59:36;;;;;;;6.80;3.75;;;16.40;99.90;;;;;;5072088;28;20410;-75
2023/08/23 01:02:02;;;;;;;5.72;4.07;;;16.50;99.90;;;;;;5072461;28;20044;-75
2023/08/23 01:04:28;;;;;;;4.45;3.92;;;16.50;99.90;;;;;;5074816;28;20084;-74
2023/08/23 01:07:11;;;;;;;5.40;3.97;;;16.50;99.90;;;;;;5071862;28;20092;-75
2023/08/23 01:10:00;;;;;;;3.63;3.28;;;16.50;99.90;;;;;;5071538;28;20086;-74
2023/08/23 01:12:50;;;;;;;4.47;3.55;;;16.40;99.90;;;;;;5072042;28;20119;-74
2023/08/23 01:15:18;;;;;;;3.75;2.90;;;16.30;99.90;;;;;;5072401;28;20512;-74
2023/08/23 01:17:46;;;;;;;3.40;3.10;;;16.20;99.90;;;;;;5071403;28;20032;-74
2023/08/23 01:20:13;;;;;;;6.90;4.38;;;16.20;99.90;;;;;;5072447;28;20101;-74
2023/08/23 01:22:45;;;;;;;6.35;4.70;;;16.20;99.90;;;;;;5071528;28;20040;-74
2023/08/23 01:25:11;;;;;;;6.50;4.32;;;16.20;99.90;;;;;;5072438;28;20439;-74
2023/08/23 01:27:36;;;;;;;5.07;4.30;;;16.30;99.90;;;;;;5071480;28;20093;-74
2023/08/23 01:30:02;;;;;;;6.47;4.05;;;16.30;99.90;;;;;;5071987;28;20471;-74
2023/08/23 01:32:39;;;;;;;5.70;3.95;;;16.30;99.90;;;;;;5071589;28;20024;-74
2023/08/23 01:35:17;;;;;;;4.72;3.92;;;16.40;99.90;;;;;;5074763;28;20483;-74
2023/08/23 01:37:48;;;;;;;5.95;4.30;;;16.40;99.90;;;;;;5055445;28;20040;-74
2023/08/23 01:40:14;;;;;;;7.28;4.07;;;16.30;99.90;;;;;;5068392;28;20048;-74
2023/08/23 01:42:41;;;;;;;4.07;3.60;;;16.30;99.90;;;;;;5075424;28;20050;-75
2023/08/23 01:45:07;;;;;;;5.28;2.70;;;16.30;99.90;;;;;;5075317;28;20043;-74
2023/08/23 01:47:33;;;;;;;3.78;2.67;;;16.20;99.90;;;;;;5092979;28;20036;-74
2023/08/23 01:49:58;;;;;;;3.60;2.90;;;16.10;99.90;;;;;;5085357;28;20502;-74
2023/08/23 01:52:24;;;;;;;3.45;2.92;;;16.10;99.90;;;;;;5073384;28;20085;-74
2023/08/23 01:54:50;;;;;;;3.60;3.00;;;16.10;99.90;;;;;;5074532;28;20039;-74
2023/08/23 01:57:15;;;;;;;4.65;3.33;;;16.00;99.90;;;;;;5074642;28;20044;-74
2023/08/23 01:59:41;;;;;;;3.50;2.80;;;16.00;99.90;;;;;;5075328;28;20048;-74
2023/08/23 02:02:06;;;;;;;5.63;3.50;;;16.00;99.90;;;;;;5074209;28;20525;-74
2023/08/23 02:04:32;;;;;;;4.25;3.10;;;16.00;99.90;;;;;;5058128;28;20487;-74
2023/08/23 02:06:57;;;;;;;4.00;3.33;;;16.00;99.90;;;;;;5074744;28;20411;-74
2023/08/23 02:09:23;;;;;;;5.95;3.60;;;16.00;99.90;;;;;;5073029;28;20076;-74
2023/08/23 02:11:48;;;;;;;4.07;3.17;;;16.00;99.90;;;;;;5074340;28;20301;-74
2023/08/23 02:14:14;;;;;;;4.38;2.90;;;16.00;99.90;;;;;;5074941;28;20115;-74
2023/08/23 02:16:39;;;;;;;3.13;2.55;;;15.90;99.90;;;;;;5074289;28;20495;-74
2023/08/23 02:19:05;;;;;;;4.68;2.70;;;15.80;99.90;;;;;;5073852;28;20032;-74
2023/08/23 02:21:30;;;;;;;3.33;2.80;;;15.80;99.90;;;;;;5074827;28;20040;-74
2023/08/23 02:23:56;;;;;;;5.13;3.00;;;15.70;99.90;;;;;;5074558;28;20114;-74
2023/08/23 02:26:21;;;;;;;46.00;5.45;;;15.50;99.90;;;;;;5074126;28;20119;-74
2023/08/23 02:28:47;;;;;;;13.70;4.63;;;15.50;99.90;;;;;;5058199;28;20032;-74
2023/08/23 02:31:13;;;;;;;6.32;4.00;;;15.50;99.90;;;;;;5073980;28;20087;-74
2023/08/23 02:33:38;;;;;;;47.38;4.88;;;15.50;99.90;;;;;;5073966;28;20036;-74
2023/08/23 02:36:04;;;;;;;18.25;4.60;;;15.60;99.90;;;;;;5092099;28;20031;-74
2023/08/23 02:38:29;;;;;;;25.42;5.93;;;15.60;99.90;;;;;;5074067;28;20039;-74
2023/08/23 02:40:55;;;;;;;11.50;4.28;;;15.60;99.90;;;;;;5074898;28;20122;-75
2023/08/23 02:43:22;;;;;;;4.90;3.92;;;15.60;99.90;;;;;;5074274;28;20063;-75
2023/08/23 02:45:47;;;;;;;6.43;4.32;;;15.70;99.90;;;;;;5057612;28;20043;-74
2023/08/23 02:48:13;;;;;;;7.40;4.45;;;15.70;99.90;;;;;;5073574;28;20035;-74
2023/08/23 02:50:39;;;;;;;9.77;4.00;;;15.70;99.90;;;;;;5073220;28;20040;-74
2023/08/23 02:53:05;;;;;;;9.55;3.88;;;15.70;99.90;;;;;;5072860;28;20487;-74
2023/08/23 02:55:37;;;;;;;3.95;3.53;;;15.60;99.90;;;;;;5074149;28;20466;-74
2023/08/23 02:58:03;;;;;;;9.15;4.60;;;15.60;99.90;;;;;;5073659;28;20066;-74
2023/08/23 03:00:29;;;;;;;5.72;4.03;;;15.60;99.90;;;;;;5091787;28;20085;-74
2023/08/23 03:02:55;;;;;;;6.70;4.60;;;15.60;99.90;;;;;;5073950;28;20044;-74
2023/08/23 03:05:20;;;;;;;5.10;4.25;;;15.60;99.90;;;;;;5073565;28;20097;-73
2023/08/23 03:07:46;;;;;;;4.75;3.78;;;15.60;99.90;;;;;;5073156;28;20098;-74
2023/08/23 03:10:12;;;;;;;5.38;4.15;;;15.60;99.90;;;;;;5072262;28;20059;-74
2023/08/23 03:12:37;;;;;;;4.43;3.80;;;15.70;99.90;;;;;;5073053;28;20036;-74
2023/08/23 03:15:03;;;;;;;4.00;3.50;;;15.70;99.90;;;;;;5073808;28;20571;-74
2023/08/23 03:17:28;;;;;;;5.60;3.80;;;15.70;99.90;;;;;;5072848;28;20031;-74
2023/08/23 03:19:56;;;;;;;4.95;3.63;;;15.60;99.90;;;;;;5073880;28;20032;-74
2023/08/23 03:22:21;;;;;;;5.00;3.20;;;15.60;99.90;;;;;;5073218;28;20047;-74
2023/08/23 03:24:47;;;;;;;6.07;3.75;;;15.60;99.90;;;;;;5072000;28;20032;-74
2023/08/23 03:27:12;;;;;;;5.40;3.65;;;15.60;99.90;;;;;;5090408;28;20421;-74
2023/08/23 03:29:38;;;;;;;4.45;3.55;;;15.60;99.90;;;;;;5073206;28;20403;-74
2023/08/23 03:32:04;;;;;;;4.25;3.80;;;15.70;99.90;;;;;;5073397;28;20028;-74
2023/08/23 03:34:29;;;;;;;4.95;3.63;;;15.50;99.90;;;;;;5072543;28;20040;-74
2023/08/23 03:36:55;;;;;;;4.25;3.75;;;15.50;99.90;;;;;;5073304;28;20032;-74
2023/08/23 03:39:20;;;;;;;8.07;3.88;;;15.40;99.90;;;;;;5073199;28;20502;-74
2023/08/23 03:41:47;;;;;;;7.05;4.28;;;15.30;99.90;;;;;;5055822;28;20491;-73
2023/08/23 03:44:12;;;;;;;9.65;4.40;;;15.20;99.90;;;;;;5073218;28;20054;-73
2023/08/23 03:46:38;;;;;;;6.10;4.50;;;15.20;99.90;;;;;;5072939;28;20032;-74
2023/08/23 03:49:03;;;;;;;6.45;4.82;;;15.20;99.90;;;;;;5072851;28;20495;-74
2023/08/23 03:51:29;;;;;;;6.43;5.20;;;15.10;99.90;;;;;;5072327;28;20490;-74
2023/08/23 03:53:54;;;;;;;5.45;4.95;;;15.20;99.90;;;;;;5055926;28;20119;-74
2023/08/23 03:56:20;;;;;;;5.60;5.00;;;15.10;99.90;;;;;;5071773;28;20503;-74
2023/08/23 03:58:46;;;;;;;6.40;4.90;;;15.10;99.90;;;;;;5072495;28;20093;-74
2023/08/23 04:01:11;;;;;;;5.20;4.55;;;15.20;99.90;;;;;;5073394;28;20147;-73
2023/08/23 04:03:37;;;;;;;6.05;5.03;;;15.20;99.90;;;;;;5089793;28;20035;-74
2023/08/23 04:06:02;;;;;;;6.63;5.93;;;15.20;99.90;;;;;;5073013;28;20119;-74
2023/08/23 04:08:28;;;;;;;7.35;5.97;;;15.20;99.90;;;;;;5071775;28;20115;-74
2023/08/23 04:10:53;;;;;;;5.60;5.03;;;15.20;99.90;;;;;;5072791;28;20074;-74
2023/08/23 04:13:19;;;;;;;7.43;6.15;;;15.20;99.90;;;;;;5073111;28;20564;-74
2023/08/23 04:15:45;;;;;;;6.68;6.03;;;15.20;99.90;;;;;;5072340;28;20098;-74
2023/08/23 04:18:11;;;;;;;8.50;6.65;;;15.20;99.90;;;;;;5072215;28;20513;-74
2023/08/23 04:20:37;;;;;;;7.88;7.07;;;15.20;99.90;;;;;;5071917;28;20036;-75
2023/08/23 04:23:04;;;;;;;8.05;6.68;;;15.20;99.90;;;;;;5072647;28;20439;-74
2023/08/23 04:25:29;;;;;;;7.60;6.50;;;15.20;99.90;;;;;;5073074;28;20130;-74
2023/08/23 04:27:55;;;;;;;12.02;7.68;;;15.30;99.90;;;;;;5072171;28;20177;-74
2023/08/23 04:30:20;;;;;;;10.07;7.50;;;15.30;99.90;;;;;;5071552;28;20513;-74
2023/08/23 04:32:46;;;;;;;16.45;8.52;;;15.30;99.90;;;;;;5072975;28;20434;-74
2023/08/23 04:35:12;;;;;;;14.52;7.75;;;15.40;99.90;;;;;;5072683;28;20047;-74
2023/08/23 04:37:37;;;;;;;16.55;9.05;;;15.40;99.90;;;;;;5071661;28;20410;-74
2023/08/23 04:40:05;;;;;;;20.83;8.85;;;15.40;99.90;;;;;;5071918;28;20032;-74
2023/08/23 04:42:31;;;;;;;15.45;8.77;;;15.40;99.90;;;;;;5071971;28;20040;-74
2023/08/23 04:44:59;;;;;;;11.20;8.18;;;15.40;99.90;;;;;;5072036;28;20122;-74
2023/08/23 04:47:25;;;;;;;19.90;10.07;;;15.40;99.90;;;;;;5072498;28;20036;-74
2023/08/23 04:49:50;;;;;;;11.45;9.07;;;15.50;99.90;;;;;;5071783;28;20036;-74
2023/08/23 04:52:16;;;;;;;11.00;8.80;;;15.50;99.90;;;;;;5071570;28;20093;-74
2023/08/23 04:54:41;;;;;;;16.33;9.30;;;15.50;99.90;;;;;;5055403;28;20549;-74
2023/08/23 04:57:07;;;;;;;18.88;9.88;;;15.50;99.90;;;;;;5072007;28;20445;-74
2023/08/23 04:59:32;;;;;;;12.52;9.75;;;15.50;99.90;;;;;;5072908;28;20044;-74
2023/08/23 05:01:58;;;;;;;15.00;10.15;;;15.50;99.90;;;;;;5071520;28;20040;-74
2023/08/23 05:04:24;;;;;;;14.65;9.98;;;15.60;99.90;;;;;;5071922;28;20438;-74
2023/08/23 05:06:49;;;;;;;15.00;10.30;;;15.70;99.90;;;;;;5072034;28;20495;-74
2023/08/23 05:09:15;;;;;;;13.00;10.48;;;15.70;99.90;;;;;;5072385;28;20032;-74
2023/08/23 05:11:40;;;;;;;15.93;11.23;;;15.70;99.90;;;;;;5070036;28;20043;-74
2023/08/23 05:14:06;;;;;;;18.95;11.57;;;15.80;99.90;;;;;;5069955;28;20043;-74
2023/08/23 05:16:32;;;;;;;18.55;12.43;;;15.70;99.90;;;;;;5073544;28;20081;-74
2023/08/23 05:18:57;;;;;;;14.05;10.60;;;15.70;99.90;;;;;;5073872;28;20408;-74
2023/08/23 05:21:23;;;;;;;19.45;12.57;;;15.80;99.90;;;;;;5076212;28;20040;-74
2023/08/23 05:23:50;;;;;;;16.83;11.90;;;15.80;99.90;;;;;;5074872;28;20101;-74
2023/08/23 05:26:16;;;;;;;19.27;13.15;;;15.80;99.90;;;;;;5075697;28;20530;-74
2023/08/23 05:28:42;;;;;;;19.70;13.55;;;15.70;99.90;;;;;;5060798;28;20058;-74
2023/08/23 05:31:08;;;;;;;18.83;13.40;;;15.80;99.90;;;;;;5095620;28;20410;-75
2023/08/23 05:33:33;;;;;;;19.70;13.18;;;15.90;99.90;;;;;;5075324;28;20117;-75
2023/08/23 05:35:59;;;;;;;17.25;14.05;;;15.80;99.90;;;;;;5075621;28;20040;-75
2023/08/23 05:38:24;;;;;;;18.33;14.02;;;15.80;99.90;;;;;;5076028;28;20445;-75
2023/08/23 05:40:53;;;;;;;16.08;13.25;;;15.80;99.90;;;;;;5076261;28;20036;-75
2023/08/23 05:43:18;;;;;;;17.90;13.30;;;15.80;99.90;;;;;;5088916;28;20047;-75
2023/08/23 05:45:45;;;;;;;17.30;13.20;;;15.80;99.90;;;;;;5075694;28;20044;-74
2023/08/23 05:48:11;;;;;;;19.27;13.18;;;15.80;99.90;;;;;;5068437;28;20044;-75
2023/08/23 05:50:36;;;;;;;18.00;12.95;;;15.80;99.90;;;;;;5078822;28;20055;-75
2023/08/23 05:53:09;;;;;;;18.10;13.10;;;15.80;99.90;;;;;;5076495;28;20458;-76
2023/08/23 05:55:35;;;;;;;16.88;13.25;;;16.00;99.90;;;;;;5070295;28;20454;-75
2023/08/23 05:58:01;;;;;;;16.40;13.50;;;16.10;99.90;;;;;;5072161;28;20061;-75
2023/08/23 06:00:26;;;;;;;18.08;14.00;;;16.20;99.90;;;;;;5069701;28;20039;-76
2023/08/23 06:02:52;;;;;;;18.05;13.25;;;16.30;99.90;;;;;;5065934;28;20040;-75
2023/08/23 06:05:17;;;;;;;18.05;13.35;;;16.30;99.90;;;;;;5057323;28;20414;-75
2023/08/23 06:07:43;;;;;;;16.88;13.23;;;16.50;99.90;;;;;;5073602;28;20682;-75
2023/08/23 06:10:10;;;;;;;17.20;13.32;;;16.50;99.90;;;;;;5071796;28;20048;-75
2023/08/23 06:12:35;;;;;;;20.15;13.23;;;16.60;99.90;;;;;;5071920;28;20452;-75
2023/08/23 06:15:01;;;;;;;17.35;12.98;;;16.70;99.90;;;;;;5073805;28;20024;-75
2023/08/23 06:17:26;;;;;;;18.20;13.07;;;16.80;99.90;;;;;;5073604;28;20037;-75
2023/08/23 06:19:52;;;;;;;17.77;14.35;;;16.90;99.90;;;;;;5057113;28;20119;-74
2023/08/23 06:22:18;;;;;;;16.92;13.80;;;16.90;99.90;;;;;;5073800;28;20088;-75
2023/08/23 06:24:43;;;;;;;17.33;13.45;;;16.90;99.90;;;;;;5074375;28;20465;-75
2023/08/23 06:27:09;;;;;;;18.65;14.25;;;16.90;99.90;;;;;;5074551;28;20041;-75
2023/08/23 06:29:37;;;;;;;20.55;14.45;;;16.90;99.90;;;;;;5074716;28;20044;-75
2023/08/23 06:32:03;;;;;;;17.88;14.40;;;16.90;99.90;;;;;;5057003;28;20143;-75
2023/08/23 06:34:28;;;;;;;17.73;14.50;;;16.90;99.90;;;;;;5074537;28;20268;-75
2023/08/23 06:36:54;;;;;;;19.83;15.10;;;17.00;99.90;;;;;;5074520;28;20031;-75
2023/08/23 06:39:19;;;;;;;18.02;14.65;;;17.10;99.90;;;;;;5074719;28;20403;-75
2023/08/23 06:41:45;;;;;;;19.10;14.45;;;17.20;99.90;;;;;;5074660;28;20036;-75
2023/08/23 06:44:10;;;;;;;19.40;15.35;;;17.40;99.90;;;;;;5074946;28;20429;-75
2023/08/23 06:46:36;;;;;;;21.20;15.93;;;17.40;99.90;;;;;;5074402;28;20036;-76
2023/08/23 06:49:02;;;;;;;20.00;15.20;;;17.40;99.90;;;;;;5075081;28;20204;-75
2023/08/23 06:51:28;;;;;;;18.38;15.52;;;17.50;99.90;;;;;;5073209;28;20040;-75
2023/08/23 06:53:54;;;;;;;19.00;15.73;;;17.70;99.90;;;;;;5074259;28;20082;-76
2023/08/23 06:56:19;;;;;;;17.85;14.82;;;17.80;99.90;;;;;;5057517;28;20128;-75
2023/08/23 06:58:45;;;;;;;17.25;13.55;;;18.00;99.90;;;;;;5068717;28;20067;-75
2023/08/23 07:01:14;;;;;;;18.83;14.00;;;18.20;99.90;;;;;;5074651;28;20039;-76
2023/08/23 07:03:44;;;;;;;16.55;13.52;;;18.30;99.90;;;;;;5074077;28;20059;-76
2023/08/23 07:06:12;;;;;;;19.63;12.63;;;18.40;99.90;;;;;;5073767;28;20083;-75
2023/08/23 07:08:38;;;;;;;14.25;12.52;;;18.60;99.90;;;;;;5073873;28;20036;-77
2023/08/23 07:11:04;;;;;;;15.65;12.45;;;18.70;99.90;;;;;;5074393;28;20040;-76
2023/08/23 07:13:29;;;;;;;16.67;13.20;;;18.80;99.90;;;;;;5065804;28;20521;-76
2023/08/23 07:15:55;;;;;;;15.60;12.52;;;19.00;99.90;;;;;;5065752;28;20118;-75
2023/08/23 07:18:20;;;;;;;14.50;11.90;;;19.10;99.90;;;;;;5073722;28;20502;-76
2023/08/23 07:20:46;;;;;;;16.00;12.57;;;19.10;99.90;;;;;;5073925;28;20040;-76
2023/08/23 07:23:12;;;;;;;15.40;11.55;;;19.10;99.90;;;;;;5091966;28;20033;-75
2023/08/23 07:25:37;;;;;;;14.15;11.65;;;19.10;99.90;;;;;;5073814;28;20032;-75
2023/08/23 07:28:03;;;;;;;13.95;11.27;;;19.10;99.90;;;;;;5073517;28;20036;-75
2023/08/23 07:30:28;;;;;;;14.30;12.43;;;19.10;99.90;;;;;;5073703;28;20327;-75
2023/08/23 07:32:54;;;;;;;13.85;11.20;;;19.20;99.90;;;;;;5073825;28;20059;-75
2023/08/23 07:35:19;;;;;;;12.85;10.63;;;19.20;99.90;;;;;;5073471;28;20043;-75
2023/08/23 07:37:45;;;;;;;13.70;10.20;;;19.30;99.90;;;;;;5072806;28;20047;-75
2023/08/23 07:40:11;;;;;;;13.15;9.93;;;19.30;99.90;;;;;;5073570;28;20119;-76
2023/08/23 07:42:37;;;;;;;12.48;9.30;;;19.50;99.90;;;;;;5070869;28;20127;-75
2023/08/23 07:45:03;;;;;;;10.45;8.38;;;19.70;99.90;;;;;;5055778;28;20024;-76
2023/08/23 07:47:29;;;;;;;9.68;8.13;;;20.00;99.90;;;;;;5072528;28;20040;-76
2023/08/23 07:49:54;;;;;;;10.80;7.80;;;20.20;99.90;;;;;;5072802;28;20039;-76
2023/08/23 07:52:20;;;;;;;9.13;7.65;;;20.40;99.90;;;;;;5065234;28;20041;-75
2023/08/23 07:54:45;;;;;;;9.70;7.50;;;20.50;99.90;;;;;;5071383;28;20492;-76
2023/08/23 07:57:11;;;;;;;9.65;7.88;;;20.60;99.90;;;;;;5071838;28;20028;-76
2023/08/23 07:59:37;;;;;;;10.65;7.88;;;20.60;99.90;;;;;;5076386;28;20040;-76
2023/08/23 08:02:03;;;;;;;10.00;8.43;;;20.60;99.90;;;;;;5071992;28;20043;-76
2023/08/23 08:04:29;;;;;;;10.43;8.77;;;20.60;99.90;;;;;;5072532;28;20045;-75
2023/08/23 08:06:56;;;;;;;9.70;8.27;;;20.60;99.90;;;;;;5072176;28;20498;-76
2023/08/23 08:09:22;;;;;;;14.02;9.30;;;20.70;99.90;;;;;;5074011;28;20637;-75
2023/08/23 08:11:47;;;;;;;11.27;8.55;;;20.90;99.90;;;;;;5070869;28;20071;-75
2023/08/23 08:14:13;;;;;;;12.10;9.00;;;21.20;99.90;;;;;;5071805;28;20036;-75
2023/08/23 08:16:39;;;;;;;14.75;8.73;;;21.40;99.90;;;;;;5071261;28;20129;-76
2023/08/23 08:19:04;;;;;;;12.73;9.35;;;21.60;99.90;;;;;;5072364;28;20032;-75
2023/08/23 08:21:30;;;;;;;15.20;9.68;;;21.60;99.90;;;;;;5071645;28;20046;-75
2023/08/23 08:23:56;;;;;;;12.60;10.23;;;21.70;99.90;;;;;;5062605;28;20040;-75
2023/08/23 08:26:23;;;;;;;13.65;9.40;;;21.60;99.90;;;;;;5070273;28;20036;-76
2023/08/23 08:28:48;;;;;;;12.15;9.13;;;21.80;99.90;;;;;;5069978;28;20376;-75
2023/08/23 08:31:14;;;;;;;13.20;9.65;;;21.90;99.90;;;;;;5072016;28;20082;-76
2023/08/23 08:33:40;;;;;;;11.32;9.40;;;22.20;99.90;;;;;;5071644;28;20051;-76
2023/08/23 08:36:06;;;;;;;11.93;9.65;;;22.20;99.90;;;;;;5072003;28;20411;-76
2023/08/23 08:38:31;;;;;;;13.95;9.73;;;22.30;99.90;;;;;;5070656;28;20040;-76
2023/08/23 08:40:57;;;;;;;14.23;9.65;;;22.40;99.90;;;;;;5056068;28;20032;-76
2023/08/23 08:43:23;;;;;;;12.27;9.48;;;22.50;99.90;;;;;;5070540;28;20039;-75
2023/08/23 08:45:49;;;;;;;13.38;9.80;;;22.70;99.90;;;;;;5055927;28;20464;-75
2023/08/23 08:48:16;;;;;;;15.52;9.80;;;22.60;99.90;;;;;;5072238;28;20036;-75
2023/08/23 08:50:43;;;;;;;9.95;8.77;;;22.60;99.90;;;;;;5076138;28;20052;-75
2023/08/23 08:53:14;;;;;;;11.43;8.80;;;22.70;99.90;;;;;;5076604;28;20048;-75
2023/08/23 08:55:41;;;;;;;13.32;9.40;;;22.80;99.90;;;;;;5076147;28;20036;-75
2023/08/23 08:58:08;;;;;;;14.15;9.75;;;22.80;99.90;;;;;;5076235;28;20042;-75
2023/08/23 09:00:34;;;;;;;12.52;8.80;;;22.90;99.90;;;;;;5076004;28;20036;-75
2023/08/23 09:03:00;;;;;;;12.70;9.52;;;22.90;99.90;;;;;;5075840;28;20050;-75
2023/08/23 09:05:26;;;;;;;14.68;9.73;;;23.10;99.90;;;;;;5083653;28;20040;-75
2023/08/23 09:07:52;;;;;;;16.55;10.02;;;23.10;99.90;;;;;;5094112;28;20423;-75
2023/08/23 09:10:19;;;;;;;12.43;9.95;;;23.20;99.90;;;;;;5071566;28;20036;-75
2023/08/23 09:12:45;;;;;;;13.93;9.57;;;23.20;99.90;;;;;;5078338;28;20039;-74
2023/08/23 09:15:10;;;;;;;11.73;9.60;;;23.10;99.90;;;;;;5083809;28;20039;-75
2023/08/23 09:17:36;;;;;;;10.98;8.80;;;23.20;99.90;;;;;;5059017;28;20514;-75
2023/08/23 09:20:06;;;;;;;10.82;9.20;;;23.20;99.90;;;;;;5100003;28;20032;-74
2023/08/23 09:22:33;;;;;;;12.48;8.98;;;23.00;99.90;;;;;;5084058;28;20457;-75
2023/08/23 09:25:04;;;;;;;12.65;9.00;;;22.70;99.90;;;;;;5073171;28;20085;-75
2023/08/23 09:27:30;;;;;;;11.38;8.15;;;22.60;99.90;;;;;;5066994;28;20036;-75
2023/08/23 09:29:58;;;;;;;12.73;8.73;;;22.40;99.90;;;;;;5058302;28;20054;-75
2023/08/23 09:32:25;;;;;;;11.45;8.48;;;22.40;99.90;;;;;;5080459;28;20040;-75
2023/08/23 09:34:50;;;;;;;12.60;9.27;;;22.30;99.90;;;;;;5073454;28;20043;-75
2023/08/23 09:37:17;;;;;;;9.80;8.45;;;22.30;99.90;;;;;;5067754;28;20488;-75
2023/08/23 09:39:43;;;;;;;12.23;9.27;;;22.30;99.90;;;;;;5071576;28;20032;-75
2023/08/23 09:42:13;;;;;;;8.77;7.88;;;22.40;99.90;;;;;;5068915;28;20040;-74
2023/08/23 09:44:46;;;;;;;14.32;7.82;;;22.70;99.90;;;;;;5064761;28;20051;-75
2023/08/23 09:47:20;;;;;;;;;;;23.00;99.90;;;;;;5073559;28;20034;-75
2023/08/23 09:49:47;;;;;;;11.00;7.93;;;23.30;99.90;;;;;;5073273;28;19977;-75
2023/08/23 09:52:13;;;;;;;14.60;9.32;;;23.50;99.90;;;;;;5069230;28;20036;-74
2023/08/23 09:55:08;;;;;;;13.15;9.00;;;23.60;99.90;;;;;;5074471;28;20097;-75
2023/08/23 09:57:34;;;;;;;12.52;9.20;;;23.60;99.90;;;;;;5073960;28;20051;-75
2023/08/23 10:00:01;;;;;;;12.82;8.95;;;23.60;99.90;;;;;;5058676;28;20063;-75
2023/08/23 10:02:29;;;;;;;11.20;8.10;;;23.60;99.90;;;;;;5074527;28;20074;-75
2023/08/23 10:04:56;;;;;;;11.45;8.95;;;23.60;99.90;;;;;;5089698;28;20075;-75
2023/08/23 10:07:23;;;;;;;14.02;9.60;;;23.50;99.90;;;;;;5075233;28;20519;-75
2023/08/23 10:09:49;;;;;;;14.50;9.20;;;23.50;99.90;;;;;;5076220;28;20094;-75
2023/08/23 10:12:17;;;;;;;14.70;9.77;;;23.60;99.90;;;;;;5075458;28;20464;-75
2023/08/23 10:14:46;;;;;;;12.98;9.52;;;23.60;99.90;;;;;;5079388;28;20503;-76
2023/08/23 10:17:14;;;;;;;11.23;8.82;;;23.40;99.90;;;;;;5078225;28;20505;-75
2023/08/23 10:19:40;;;;;;;11.13;9.07;;;23.30;99.90;;;;;;5073847;28;20036;-75
2023/08/23 10:22:06;;;;;;;12.57;9.35;;;23.50;99.90;;;;;;5072711;28;20032;-75
2023/08/23 10:24:32;;;;;;;12.70;9.43;;;23.60;99.90;;;;;;5074388;28;20047;-76
2023/08/23 10:27:05;;;;;;;11.30;9.25;;;23.70;99.90;;;;;;5060472;28;20403;-76
2023/08/23 10:29:31;;;;;;;11.20;9.13;;;23.80;99.90;;;;;;5058647;28;20073;-77
2023/08/23 10:31:57;;;;;;;9.98;8.45;;;23.70;99.90;;;;;;5077453;28;20064;-76
2023/08/23 10:34:24;;;;;;;12.18;8.75;;;23.70;99.90;;;;;;5077130;28;20032;-76
2023/08/23 10:36:50;;;;;;;9.30;7.97;;;23.90;99.90;;;;;;5074910;28;20148;-76
2023/08/23 10:39:16;;;;;;;10.98;7.35;;;24.20;99.90;;;;;;5075582;28;20032;-76
2023/08/23 10:41:42;;;;;;;9.55;8.23;;;24.50;99.90;;;;;;5072414;28;20085;-76
2023/08/23 10:44:15;;;;;;;9.45;6.35;;;24.70;99.90;;;;;;5074034;28;20043;-76
2023/08/23 10:46:44;;;;;;;10.23;7.43;;;24.90;99.90;;;;;;5077605;28;20163;-76
2023/08/23 10:49:14;;;;;;;15.07;7.70;;;25.10;99.90;;;;;;5070557;28;20078;-76
2023/08/23 10:51:42;;;;;;;9.75;7.05;;;25.20;99.90;;;;;;5074060;28;20491;-75
2023/08/23 10:54:12;;;;;;;10.80;6.45;;;25.10;99.90;;;;;;5073825;28;20036;-77
2023/08/23 10:56:38;;;;;;;9.35;8.18;;;25.30;99.90;;;;;;5074153;28;20123;-76
2023/08/23 10:59:06;;;;;;;9.80;7.43;;;25.40;99.90;;;;;;5073914;28;20111;-76
2023/08/23 11:01:33;;;;;;;6.70;5.50;;;25.50;99.90;;;;;;5074492;28;20391;-76
2023/08/23 11:04:01;;;;;;;8.43;5.50;;;25.50;99.90;;;;;;5071350;28;20295;-76
2023/08/23 11:06:27;;;;;;;9.30;5.75;;;25.50;99.90;;;;;;5073313;28;20032;-75
2023/08/23 11:08:52;;;;;;;9.70;6.20;;;25.70;99.90;;;;;;5071159;28;20395;-75
2023/08/23 11:11:18;;;;;;;8.75;5.50;;;25.70;99.90;;;;;;5075189;28;20036;-75
2023/08/23 11:13:46;;;;;;;9.55;6.60;;;25.70;99.90;;;;;;5071819;28;20044;-75
2023/08/23 11:16:11;;;;;;;6.78;4.63;;;25.80;99.90;;;;;;5070257;28;20395;-75
2023/08/23 11:18:37;;;;;;;7.72;4.72;;;25.60;99.90;;;;;;5074220;28;20040;-75
2023/08/23 11:21:04;;;;;;;8.13;5.07;;;25.40;99.90;;;;;;5074757;28;20275;-75
2023/08/23 11:23:29;;;;;;;8.07;5.03;;;25.20;99.90;;;;;;5071599;28;20051;-73
2023/08/23 11:25:55;;;;;;;10.50;4.82;;;25.20;99.90;;;;;;5072833;28;20040;-73
2023/08/23 11:28:20;;;;;;;9.52;4.13;;;25.40;99.90;;;;;;5077020;28;20118;-74
2023/08/23 11:30:46;;;;;;;7.07;3.63;;;25.70;99.90;;;;;;5078183;28;20147;-74
2023/08/23 11:33:12;;;;;;;7.82;4.65;;;26.10;99.90;;;;;;5092621;28;20028;-74
2023/08/23 11:35:38;;;;;;;8.85;4.65;;;26.40;99.90;;;;;;5071926;28;20040;-73
2023/08/23 11:38:05;;;;;;;7.50;3.50;;;26.60;99.90;;;;;;5075898;28;20126;-74
2023/08/23 11:40:34;;;;;;;7.93;3.60;;;26.60;99.90;;;;;;5073505;28;20072;-74
2023/08/23 11:43:03;;;;;;;8.55;3.42;;;26.40;99.90;;;;;;5065552;28;20410;-74
2023/08/23 11:45:36;;;;;;;7.13;2.90;;;26.50;99.90;;;;;;5070776;28;20068;-74
2023/08/23 11:48:01;;;;;;;8.50;3.15;;;26.90;99.90;;;;;;5072917;28;20176;-74
2023/08/23 11:50:28;;;;;;;6.45;2.42;;;27.20;99.90;;;;;;5071665;28;20130;-73
2023/08/23 11:52:53;;;;;;;7.10;2.15;;;27.50;99.90;;;;;;5057548;28;20047;-74
2023/08/23 11:55:23;;;;;;;5.50;1.73;;;27.70;99.90;;;;;;5071141;28;20161;-73
2023/08/23 11:57:54;;;;;;;5.68;2.17;;;28.00;99.90;;;;;;5072696;28;20035;-73
2023/08/23 12:00:19;;;;;;;6.35;2.25;;;28.30;99.90;;;;;;5070370;28;20050;-73
2023/08/23 12:02:45;;;;;;;5.25;2.10;;;28.60;99.90;;;;;;5063386;28;20040;-74
2023/08/23 12:05:13;;;;;;;3.50;1.83;;;28.30;99.90;;;;;;5072931;28;20113;-74
2023/08/23 12:07:39;;;;;;;3.80;2.00;;;27.90;99.90;;;;;;5072670;28;20044;-74
2023/08/23 12:10:08;;;;;;;5.95;2.22;;;27.50;99.90;;;;;;5073112;28;20032;-74
2023/08/23 12:12:34;;;;;;;4.07;1.90;;;27.10;99.90;;;;;;5070715;28;20128;-73
2023/08/23 12:15:00;;;;;;;5.30;2.08;;;26.60;99.90;;;;;;5075132;28;20103;-75
2023/08/23 12:17:27;;;;;;;5.28;2.17;;;26.00;99.90;;;;;;5071157;28;20492;-74
2023/08/23 12:19:52;;;;;;;4.20;1.95;;;25.60;99.90;;;;;;5072400;28;20036;-74
2023/08/23 12:22:18;;;;;;;5.53;2.25;;;25.50;99.90;;;;;;5072596;28;20036;-72
2023/08/23 12:24:43;;;;;;;8.57;2.10;;;25.50;99.90;;;;;;5072151;28;20040;-74
2023/08/23 12:27:09;;;;;;;3.10;1.60;;;25.30;99.90;;;;;;5069838;28;20337;-74
2023/08/23 12:29:35;;;;;;;4.55;1.73;;;25.60;99.90;;;;;;5057900;28;20039;-74
2023/08/23 12:32:00;;;;;;;7.57;2.33;;;25.90;99.90;;;;;;5078077;28;20040;-72
2023/08/23 12:34:26;;;;;;;5.30;2.67;;;26.20;99.90;;;;;;5071361;28;20032;-74
2023/08/23 12:36:52;;;;;;;5.43;1.80;;;26.50;99.90;;;;;;5071831;28;20032;-73